sensor_id;sensor_type;location;lat;lon;timestamp;pressure;altitude;pressure_sealevel;temperature;humidity
25664;BME280;13522;50.018;20.014;2023-05-09T00:02:58;99938.78;;;4.51;100.00
25664;BME280;13522;50.018;20.014;2023-05-09T00:06:11;99950.86;;;4.37;100.00
25664;BME280;13522;50.018;20.014;2023-05-09T00:09:25;99947.45;;;4.35;100.00
25664;BME280;13522;50.018;20.014;2023-05-09T00:12:38;99942.63;;;4.26;100.00
25664;BME280;13522;50.018;20.014;2023-05-09T00:15:51;99951.45;;;4.25;100.00
25664;BME280;13522;50.018;20.014;2023-05-09T00:19:03;99934.90;;;4.23;100.00
25664;BME280;13522;50.018;20.014;2023-05-09T00:22:16;99940.77;;;4.28;100.00
25664;BME280;13522;50.018;20.014;2023-05-09T00:25:28;99931.80;;;4.32;100.00
25664;BME280;13522;50.018;20.014;2023-05-09T00:28:41;99925.69;;;4.32;100.00
25664;BME280;13522;50.018;20.014;2023-05-09T00:31:53;99931.20;;;4.27;100.00
25664;BME280;13522;50.018;20.014;2023-05-09T00:35:07;99931.03;;;4.30;100.00
25664;BME280;13522;50.018;20.014;2023-05-09T00:38:20;99930.89;;;4.33;100.00
25664;BME280;13522;50.018;20.014;2023-05-09T00:41:33;99929.39;;;4.28;100.00
25664;BME280;13522;50.018;20.014;2023-05-09T00:44:45;99924.86;;;4.31;100.00
25664;BME280;13522;50.018;20.014;2023-05-09T00:47:57;99921.28;;;4.32;100.00
25664;BME280;13522;50.018;20.014;2023-05-09T00:51:10;99918.44;;;4.37;100.00
25664;BME280;13522;50.018;20.014;2023-05-09T00:54:22;99916.20;;;4.29;100.00
25664;BME280;13522;50.018;20.014;2023-05-09T00:57:34;99916.33;;;4.26;100.00
25664;BME280;13522;50.018;20.014;2023-05-09T01:00:47;99923.14;;;4.30;100.00
25664;BME280;13522;50.018;20.014;2023-05-09T01:03:59;99921.67;;;4.25;100.00
25664;BME280;13522;50.018;20.014;2023-05-09T01:07:15;99923.22;;;4.29;100.00
25664;BME280;13522;50.018;20.014;2023-05-09T01:10:37;99920.03;;;4.22;100.00
25664;BME280;13522;50.018;20.014;2023-05-09T01:13:58;99916.80;;;4.17;100.00
25664;BME280;13522;50.018;20.014;2023-05-09T01:17:18;99920.50;;;4.13;100.00
25664;BME280;13522;50.018;20.014;2023-05-09T01:20:37;99919.94;;;4.07;100.00
25664;BME280;13522;50.018;20.014;2023-05-09T01:24:06;99916.13;;;3.95;100.00
25664;BME280;13522;50.018;20.014;2023-05-09T01:27:36;99907.19;;;3.81;100.00
25664;BME280;13522;50.018;20.014;2023-05-09T01:30:52;99911.83;;;3.76;100.00
25664;BME280;13522;50.018;20.014;2023-05-09T01:34:07;99917.37;;;3.70;100.00
25664;BME280;13522;50.018;20.014;2023-05-09T01:37:26;99916.42;;;3.71;100.00
25664;BME280;13522;50.018;20.014;2023-05-09T01:40:40;99904.94;;;3.73;100.00
25664;BME280;13522;50.018;20.014;2023-05-09T01:43:55;99913.75;;;3.72;100.00
25664;BME280;13522;50.018;20.014;2023-05-09T01:47:11;99917.16;;;3.74;100.00
25664;BME280;13522;50.018;20.014;2023-05-09T01:50:25;99912.89;;;3.72;100.00
25664;BME280;13522;50.018;20.014;2023-05-09T01:53:38;99906.16;;;3.66;100.00
25664;BME280;13522;50.018;20.014;2023-05-09T01:56:51;99908.63;;;3.69;100.00
25664;BME280;13522;50.018;20.014;2023-05-09T02:00:07;99882.65;;;3.63;100.00
25664;BME280;13522;50.018;20.014;2023-05-09T02:03:23;99915.73;;;3.67;100.00
25664;BME280;13522;50.018;20.014;2023-05-09T02:06:36;99901.81;;;3.65;100.00
25664;BME280;13522;50.018;20.014;2023-05-09T02:09:50;99901.03;;;3.63;100.00
25664;BME280;13522;50.018;20.014;2023-05-09T02:13:03;99901.40;;;3.56;100.00
25664;BME280;13522;50.018;20.014;2023-05-09T02:16:15;99904.39;;;3.48;100.00
25664;BME280;13522;50.018;20.014;2023-05-09T02:19:28;99903.73;;;3.43;100.00
25664;BME280;13522;50.018;20.014;2023-05-09T02:22:41;99903.81;;;3.41;100.00
25664;BME280;13522;50.018;20.014;2023-05-09T02:25:54;99902.83;;;3.44;100.00
25664;BME280;13522;50.018;20.014;2023-05-09T02:29:08;99898.48;;;3.43;100.00
25664;BME280;13522;50.018;20.014;2023-05-09T02:32:24;99895.86;;;3.43;100.00
25664;BME280;13522;50.018;20.014;2023-05-09T02:35:38;99896.88;;;3.40;100.00
25664;BME280;13522;50.018;20.014;2023-05-09T02:38:53;99897.98;;;3.35;100.00
25664;BME280;13522;50.018;20.014;2023-05-09T02:42:10;99891.55;;;3.42;100.00
25664;BME280;13522;50.018;20.014;2023-05-09T02:45:23;99896.72;;;3.43;100.00
25664;BME280;13522;50.018;20.014;2023-05-09T02:48:36;99888.27;;;3.37;100.00
25664;BME280;13522;50.018;20.014;2023-05-09T02:51:48;99881.41;;;3.34;100.00
25664;BME280;13522;50.018;20.014;2023-05-09T02:55:02;99889.60;;;3.27;100.00
25664;BME280;13522;50.018;20.014;2023-05-09T02:58:17;99897.71;;;3.22;100.00
25664;BME280;13522;50.018;20.014;2023-05-09T03:01:30;99890.82;;;3.20;100.00
25664;BME280;13522;50.018;20.014;2023-05-09T03:04:42;99905.70;;;3.19;100.00
25664;BME280;13522;50.018;20.014;2023-05-09T03:07:55;99895.56;;;3.12;100.00
25664;BME280;13522;50.018;20.014;2023-05-09T03:11:08;99903.63;;;3.07;100.00
25664;BME280;13522;50.018;20.014;2023-05-09T03:14:20;99897.60;;;3.05;100.00
25664;BME280;13522;50.018;20.014;2023-05-09T03:17:32;99891.56;;;3.03;100.00
25664;BME280;13522;50.018;20.014;2023-05-09T03:20:45;99897.67;;;3.04;100.00
25664;BME280;13522;50.018;20.014;2023-05-09T03:23:57;99907.19;;;3.06;100.00
25664;BME280;13522;50.018;20.014;2023-05-09T03:27:10;99900.45;;;3.01;100.00
25664;BME280;13522;50.018;20.014;2023-05-09T03:30:23;99903.20;;;2.98;100.00
25664;BME280;13522;50.018;20.014;2023-05-09T03:33:36;99900.57;;;2.98;100.00
25664;BME280;13522;50.018;20.014;2023-05-09T03:36:48;99899.67;;;2.99;100.00
25664;BME280;13522;50.018;20.014;2023-05-09T03:40:02;99904.77;;;3.02;100.00
25664;BME280;13522;50.018;20.014;2023-05-09T03:43:16;99906.33;;;3.06;100.00
25664;BME280;13522;50.018;20.014;2023-05-09T03:46:28;99901.08;;;3.06;100.00
25664;BME280;13522;50.018;20.014;2023-05-09T03:49:41;99902.80;;;3.07;100.00
25664;BME280;13522;50.018;20.014;2023-05-09T03:52:54;99908.05;;;3.07;100.00
25664;BME280;13522;50.018;20.014;2023-05-09T03:56:08;99913.15;;;3.10;100.00
25664;BME280;13522;50.018;20.014;2023-05-09T03:59:22;99916.44;;;3.15;100.00
25664;BME280;13522;50.018;20.014;2023-05-09T04:02:35;99915.66;;;3.13;100.00
25664;BME280;13522;50.018;20.014;2023-05-09T04:05:49;99909.47;;;3.14;100.00
25664;BME280;13522;50.018;20.014;2023-05-09T04:09:07;99907.20;;;3.25;100.00
25664;BME280;13522;50.018;20.014;2023-05-09T04:12:20;99909.90;;;3.23;100.00
25664;BME280;13522;50.018;20.014;2023-05-09T04:15:32;99911.34;;;3.30;100.00
25664;BME280;13522;50.018;20.014;2023-05-09T04:18:46;99908.05;;;3.25;100.00
25664;BME280;13522;50.018;20.014;2023-05-09T04:21:59;99906.92;;;3.31;100.00
25664;BME280;13522;50.018;20.014;2023-05-09T04:25:11;99907.66;;;3.34;100.00
25664;BME280;13522;50.018;20.014;2023-05-09T04:28:25;99904.67;;;3.42;100.00
25664;BME280;13522;50.018;20.014;2023-05-09T04:31:38;99908.70;;;3.49;100.00
25664;BME280;13522;50.018;20.014;2023-05-09T04:34:51;99898.41;;;3.63;100.00
25664;BME280;13522;50.018;20.014;2023-05-09T04:38:05;99900.13;;;3.64;100.00
25664;BME280;13522;50.018;20.014;2023-05-09T04:41:19;99902.30;;;3.73;100.00
25664;BME280;13522;50.018;20.014;2023-05-09T04:44:33;99904.64;;;3.79;100.00
25664;BME280;13522;50.018;20.014;2023-05-09T04:47:45;99898.80;;;3.91;100.00
25664;BME280;13522;50.018;20.014;2023-05-09T04:50:57;99906.02;;;4.05;100.00
25664;BME280;13522;50.018;20.014;2023-05-09T04:54:10;99905.33;;;4.18;100.00
25664;BME280;13522;50.018;20.014;2023-05-09T04:57:22;99898.70;;;4.28;100.00
25664;BME280;13522;50.018;20.014;2023-05-09T05:00:36;99904.59;;;4.33;100.00
25664;BME280;13522;50.018;20.014;2023-05-09T05:03:48;99905.89;;;4.42;100.00
25664;BME280;13522;50.018;20.014;2023-05-09T05:07:01;99895.53;;;4.56;100.00
25664;BME280;13522;50.018;20.014;2023-05-09T05:10:14;99898.48;;;4.67;100.00
25664;BME280;13522;50.018;20.014;2023-05-09T05:13:28;99896.91;;;4.80;100.00
25664;BME280;13522;50.018;20.014;2023-05-09T05:16:40;99896.09;;;4.95;100.00
25664;BME280;13522;50.018;20.014;2023-05-09T05:19:53;99890.95;;;5.09;100.00
25664;BME280;13522;50.018;20.014;2023-05-09T05:23:06;99891.80;;;5.43;100.00
25664;BME280;13522;50.018;20.014;2023-05-09T05:26:18;99880.83;;;5.81;100.00
25664;BME280;13522;50.018;20.014;2023-05-09T05:29:30;99885.22;;;6.28;100.00
25664;BME280;13522;50.018;20.014;2023-05-09T05:35:44;99872.05;;;6.99;100.00
25664;BME280;13522;50.018;20.014;2023-05-09T05:41:57;99874.80;;;7.26;100.00
25664;BME280;13522;50.018;20.014;2023-05-09T05:48:10;99863.86;;;7.18;100.00
25664;BME280;13522;50.018;20.014;2023-05-09T05:54:24;99864.38;;;7.51;100.00
25664;BME280;13522;50.018;20.014;2023-05-09T06:00:36;99863.17;;;7.83;100.00
25664;BME280;13522;50.018;20.014;2023-05-09T06:03:49;99864.91;;;7.97;100.00
25664;BME280;13522;50.018;20.014;2023-05-09T06:19:09;99842.45;;;8.94;100.00
25664;BME280;13522;50.018;20.014;2023-05-09T06:22:21;99848.48;;;9.21;98.12
25664;BME280;13522;50.018;20.014;2023-05-09T06:25:34;99834.69;;;9.28;95.32
25664;BME280;13522;50.018;20.014;2023-05-09T06:28:46;99833.49;;;9.69;96.02
25664;BME280;13522;50.018;20.014;2023-05-09T06:40:58;99822.50;;;11.34;88.67
25664;BME280;13522;50.018;20.014;2023-05-09T06:47:11;99815.43;;;12.20;83.99
25664;BME280;13522;50.018;20.014;2023-05-09T06:50:23;99803.02;;;12.51;83.08
25664;BME280;13522;50.018;20.014;2023-05-09T06:53:37;99796.59;;;12.53;80.04
25664;BME280;13522;50.018;20.014;2023-05-09T06:56:49;99807.69;;;12.58;79.01
25664;BME280;13522;50.018;20.014;2023-05-09T07:00:02;99780.27;;;12.97;80.31
25664;BME280;13522;50.018;20.014;2023-05-09T07:03:16;99788.05;;;13.40;75.03
25664;BME280;13522;50.018;20.014;2023-05-09T07:06:29;99796.17;;;12.78;75.27
25664;BME280;13522;50.018;20.014;2023-05-09T07:09:41;99788.38;;;13.56;75.87
25664;BME280;13522;50.018;20.014;2023-05-09T07:12:55;99785.24;;;13.42;74.93
25664;BME280;13522;50.018;20.014;2023-05-09T07:16:08;99773.53;;;14.11;75.84
25664;BME280;13522;50.018;20.014;2023-05-09T07:19:21;99759.61;;;14.92;74.16
25664;BME280;13522;50.018;20.014;2023-05-09T07:22:33;99758.54;;;15.12;71.68
25664;BME280;13522;50.018;20.014;2023-05-09T07:25:45;99754.98;;;14.29;72.47
25664;BME280;13522;50.018;20.014;2023-05-09T07:28:58;99753.09;;;15.04;72.71
25664;BME280;13522;50.018;20.014;2023-05-09T07:32:10;99739.53;;;14.78;67.08
25664;BME280;13522;50.018;20.014;2023-05-09T07:35:23;99741.91;;;14.16;65.94
25664;BME280;13522;50.018;20.014;2023-05-09T07:38:35;99737.81;;;14.22;66.70
25664;BME280;13522;50.018;20.014;2023-05-09T07:41:47;99750.77;;;13.78;66.87
25664;BME280;13522;50.018;20.014;2023-05-09T07:44:59;99737.16;;;14.75;65.16
25664;BME280;13522;50.018;20.014;2023-05-09T07:48:13;99724.06;;;15.09;65.68
25664;BME280;13522;50.018;20.014;2023-05-09T07:51:25;99727.77;;;15.26;65.41
25664;BME280;13522;50.018;20.014;2023-05-09T07:54:37;99728.16;;;15.04;62.37
25664;BME280;13522;50.018;20.014;2023-05-09T07:57:49;99717.91;;;15.89;64.06
25664;BME280;13522;50.018;20.014;2023-05-09T08:01:02;99722.70;;;14.96;61.87
25664;BME280;13522;50.018;20.014;2023-05-09T08:04:14;99718.25;;;15.14;61.49
25664;BME280;13522;50.018;20.014;2023-05-09T08:07:26;99704.33;;;14.37;62.11
25664;BME280;13522;50.018;20.014;2023-05-09T08:10:39;99709.84;;;15.09;61.42
25664;BME280;13522;50.018;20.014;2023-05-09T08:13:51;99702.98;;;14.69;61.13
25664;BME280;13522;50.018;20.014;2023-05-09T08:17:03;99694.88;;;15.43;60.66
25664;BME280;13522;50.018;20.014;2023-05-09T08:20:15;99681.86;;;15.83;58.65
25664;BME280;13522;50.018;20.014;2023-05-09T08:23:29;99683.05;;;14.82;60.23
25664;BME280;13522;50.018;20.014;2023-05-09T08:26:41;99674.28;;;15.96;59.74
25664;BME280;13522;50.018;20.014;2023-05-09T08:29:54;99671.03;;;16.54;59.20
25664;BME280;13522;50.018;20.014;2023-05-09T08:33:08;99653.41;;;16.85;57.05
25664;BME280;13522;50.018;20.014;2023-05-09T08:36:20;99662.41;;;16.76;54.53
25664;BME280;13522;50.018;20.014;2023-05-09T08:39:32;99660.40;;;16.78;56.96
25664;BME280;13522;50.018;20.014;2023-05-09T08:42:45;99663.38;;;16.67;52.77
25664;BME280;13522;50.018;20.014;2023-05-09T08:46:00;99660.91;;;16.22;53.60
25664;BME280;13522;50.018;20.014;2023-05-09T08:49:15;99643.75;;;16.40;53.57
25664;BME280;13522;50.018;20.014;2023-05-09T08:52:28;99647.80;;;17.12;51.97
25664;BME280;13522;50.018;20.014;2023-05-09T08:55:41;99648.44;;;17.72;54.07
25664;BME280;13522;50.018;20.014;2023-05-09T08:58:53;99643.90;;;17.56;49.63
25664;BME280;13522;50.018;20.014;2023-05-09T09:02:10;99643.36;;;16.53;50.07
25664;BME280;13522;50.018;20.014;2023-05-09T09:05:23;99655.02;;;16.70;50.94
25664;BME280;13522;50.018;20.014;2023-05-09T09:08:38;99645.34;;;16.25;50.43
25664;BME280;13522;50.018;20.014;2023-05-09T09:11:51;99647.96;;;16.69;51.46
25664;BME280;13522;50.018;20.014;2023-05-09T09:15:06;99651.40;;;16.87;53.56
25664;BME280;13522;50.018;20.014;2023-05-09T09:18:27;99637.87;;;17.70;49.52
25664;BME280;13522;50.018;20.014;2023-05-09T09:21:41;99618.34;;;18.08;48.08
25664;BME280;13522;50.018;20.014;2023-05-09T09:24:58;99624.75;;;17.99;51.70
25664;BME280;13522;50.018;20.014;2023-05-09T09:28:11;99622.67;;;18.50;49.77
25664;BME280;13522;50.018;20.014;2023-05-09T09:31:25;99601.33;;;18.87;46.48
25664;BME280;13522;50.018;20.014;2023-05-09T09:34:40;99596.53;;;19.28;49.51
25664;BME280;13522;50.018;20.014;2023-05-09T09:37:56;99585.55;;;19.37;47.70
25664;BME280;13522;50.018;20.014;2023-05-09T09:41:09;99603.75;;;19.35;46.62
25664;BME280;13522;50.018;20.014;2023-05-09T09:44:23;99612.47;;;18.76;45.42
25664;BME280;13522;50.018;20.014;2023-05-09T09:47:36;99605.86;;;18.40;44.89
25664;BME280;13522;50.018;20.014;2023-05-09T09:50:49;99605.94;;;17.91;47.94
25664;BME280;13522;50.018;20.014;2023-05-09T09:54:04;99594.44;;;18.38;46.21
25664;BME280;13522;50.018;20.014;2023-05-09T09:57:33;99594.50;;;18.05;46.87
25664;BME280;13522;50.018;20.014;2023-05-09T10:00:48;99583.19;;;18.81;45.81
25664;BME280;13522;50.018;20.014;2023-05-09T10:04:17;99586.00;;;19.18;45.55
25664;BME280;13522;50.018;20.014;2023-05-09T10:07:32;99587.58;;;18.74;45.13
25664;BME280;13522;50.018;20.014;2023-05-09T10:10:44;99595.25;;;18.38;45.91
25664;BME280;13522;50.018;20.014;2023-05-09T10:13:57;99591.30;;;18.73;48.29
25664;BME280;13522;50.018;20.014;2023-05-09T10:17:12;99603.59;;;17.96;47.68
25664;BME280;13522;50.018;20.014;2023-05-09T10:20:25;99594.88;;;17.54;48.73
25664;BME280;13522;50.018;20.014;2023-05-09T10:23:41;99595.68;;;17.95;48.22
25664;BME280;13522;50.018;20.014;2023-05-09T10:27:00;99598.64;;;17.19;49.00
25664;BME280;13522;50.018;20.014;2023-05-09T10:30:18;99598.52;;;16.71;50.57
25664;BME280;13522;50.018;20.014;2023-05-09T10:33:36;99600.67;;;17.25;50.92
25664;BME280;13522;50.018;20.014;2023-05-09T10:36:52;99599.30;;;16.30;51.66
25664;BME280;13522;50.018;20.014;2023-05-09T10:40:07;99604.95;;;17.60;53.55
25664;BME280;13522;50.018;20.014;2023-05-09T10:43:23;99577.72;;;17.87;49.55
25664;BME280;13522;50.018;20.014;2023-05-09T10:46:37;99569.16;;;17.92;49.05
25664;BME280;13522;50.018;20.014;2023-05-09T10:49:50;99557.09;;;17.56;47.94
25664;BME280;13522;50.018;20.014;2023-05-09T10:53:11;99556.72;;;18.62;48.57
25664;BME280;13522;50.018;20.014;2023-05-09T10:56:25;99546.13;;;18.91;47.69
25664;BME280;13522;50.018;20.014;2023-05-09T10:59:42;99545.32;;;18.82;49.17
25664;BME280;13522;50.018;20.014;2023-05-09T11:03:08;99535.66;;;18.10;45.67
25664;BME280;13522;50.018;20.014;2023-05-09T11:06:40;99546.88;;;18.77;47.48
25664;BME280;13522;50.018;20.014;2023-05-09T11:10:09;99532.55;;;19.89;48.72
25664;BME280;13522;50.018;20.014;2023-05-09T11:13:22;99528.59;;;18.95;45.82
25664;BME280;13522;50.018;20.014;2023-05-09T11:16:40;99540.27;;;18.49;45.52
25664;BME280;13522;50.018;20.014;2023-05-09T11:20:09;99528.58;;;18.26;45.35
25664;BME280;13522;50.018;20.014;2023-05-09T11:23:24;99518.39;;;19.36;45.52
25664;BME280;13522;50.018;20.014;2023-05-09T11:26:37;99507.28;;;19.91;47.13
25664;BME280;13522;50.018;20.014;2023-05-09T11:29:53;99494.73;;;20.12;45.53
25664;BME280;13522;50.018;20.014;2023-05-09T11:33:06;99495.58;;;20.27;44.46
25664;BME280;13522;50.018;20.014;2023-05-09T11:36:32;99499.73;;;20.44;44.53
25664;BME280;13522;50.018;20.014;2023-05-09T11:39:58;99492.19;;;19.81;44.12
25664;BME280;13522;50.018;20.014;2023-05-09T11:43:13;99494.55;;;19.02;44.40
25664;BME280;13522;50.018;20.014;2023-05-09T11:46:28;99500.77;;;18.41;45.06
25664;BME280;13522;50.018;20.014;2023-05-09T11:49:44;99499.88;;;18.57;43.04
25664;BME280;13522;50.018;20.014;2023-05-09T11:52:57;99487.19;;;19.19;45.56
25664;BME280;13522;50.018;20.014;2023-05-09T11:56:09;99470.31;;;19.25;42.06
25664;BME280;13522;50.018;20.014;2023-05-09T11:59:21;99466.43;;;19.79;44.05
25664;BME280;13522;50.018;20.014;2023-05-09T12:02:34;99455.92;;;19.99;41.48
25664;BME280;13522;50.018;20.014;2023-05-09T12:05:48;99472.50;;;20.25;45.74
25664;BME280;13522;50.018;20.014;2023-05-09T12:09:00;99461.64;;;19.15;42.44
25664;BME280;13522;50.018;20.014;2023-05-09T12:12:14;99459.66;;;18.86;41.67
25664;BME280;13522;50.018;20.014;2023-05-09T12:15:28;99461.58;;;19.00;40.43
25664;BME280;13522;50.018;20.014;2023-05-09T12:18:47;99455.27;;;19.30;42.32
25664;BME280;13522;50.018;20.014;2023-05-09T12:22:01;99448.95;;;18.78;41.44
25664;BME280;13522;50.018;20.014;2023-05-09T12:25:15;99448.00;;;18.71;44.71
25664;BME280;13522;50.018;20.014;2023-05-09T12:28:27;99441.77;;;19.38;44.73
25664;BME280;13522;50.018;20.014;2023-05-09T12:31:41;99431.34;;;19.35;41.51
25664;BME280;13522;50.018;20.014;2023-05-09T12:34:55;99429.44;;;19.87;41.89
25664;BME280;13522;50.018;20.014;2023-05-09T12:38:07;99418.75;;;19.79;38.38
25664;BME280;13522;50.018;20.014;2023-05-09T12:41:22;99409.23;;;20.13;38.88
25664;BME280;13522;50.018;20.014;2023-05-09T12:44:36;99412.72;;;19.63;38.98
25664;BME280;13522;50.018;20.014;2023-05-09T12:47:55;99406.20;;;19.43;39.08
25664;BME280;13522;50.018;20.014;2023-05-09T12:51:10;99417.44;;;19.46;38.59
25664;BME280;13522;50.018;20.014;2023-05-09T12:54:26;99419.05;;;18.42;39.12
25664;BME280;13522;50.018;20.014;2023-05-09T12:57:39;99407.69;;;18.63;40.06
25664;BME280;13522;50.018;20.014;2023-05-09T13:00:53;99400.96;;;19.04;39.91
25664;BME280;13522;50.018;20.014;2023-05-09T13:04:07;99397.13;;;19.21;40.15
25664;BME280;13522;50.018;20.014;2023-05-09T13:07:21;99381.58;;;19.60;39.74
25664;BME280;13522;50.018;20.014;2023-05-09T13:10:35;99386.75;;;20.06;41.19
25664;BME280;13522;50.018;20.014;2023-05-09T13:13:49;99392.27;;;19.68;40.60
25664;BME280;13522;50.018;20.014;2023-05-09T13:17:03;99396.70;;;19.10;41.21
25664;BME280;13522;50.018;20.014;2023-05-09T13:20:16;99399.55;;;18.40;41.36
25664;BME280;13522;50.018;20.014;2023-05-09T13:23:29;99406.59;;;17.80;41.37
25664;BME280;13522;50.018;20.014;2023-05-09T13:26:43;99402.11;;;17.64;41.93
25664;BME280;13522;50.018;20.014;2023-05-09T13:29:55;99386.91;;;17.87;43.21
25664;BME280;13522;50.018;20.014;2023-05-09T13:33:07;99378.55;;;18.13;41.75
25664;BME280;13522;50.018;20.014;2023-05-09T13:36:21;99374.02;;;18.36;39.05
25664;BME280;13522;50.018;20.014;2023-05-09T13:39:33;99380.83;;;17.93;40.92
25664;BME280;13522;50.018;20.014;2023-05-09T13:42:45;99367.42;;;17.85;40.00
25664;BME280;13522;50.018;20.014;2023-05-09T13:45:57;99371.05;;;18.62;42.12
25664;BME280;13522;50.018;20.014;2023-05-09T13:49:10;99362.08;;;18.16;40.73
25664;BME280;13522;50.018;20.014;2023-05-09T13:52:22;99355.38;;;17.73;40.75
25664;BME280;13522;50.018;20.014;2023-05-09T13:55:35;99371.11;;;17.21;42.63
25664;BME280;13522;50.018;20.014;2023-05-09T13:58:48;99372.16;;;16.96;43.12
25664;BME280;13522;50.018;20.014;2023-05-09T14:02:00;99363.94;;;16.90;42.22
25664;BME280;13522;50.018;20.014;2023-05-09T14:05:13;99371.00;;;16.99;43.47
25664;BME280;13522;50.018;20.014;2023-05-09T14:08:26;99355.54;;;17.17;41.75
25664;BME280;13522;50.018;20.014;2023-05-09T14:11:38;99358.56;;;16.98;41.55
25664;BME280;13522;50.018;20.014;2023-05-09T14:14:51;99362.45;;;16.87;42.63
25664;BME280;13522;50.018;20.014;2023-05-09T14:18:03;99352.87;;;17.09;43.17
25664;BME280;13522;50.018;20.014;2023-05-09T14:21:17;99360.08;;;17.08;42.85
25664;BME280;13522;50.018;20.014;2023-05-09T14:24:30;99347.52;;;16.93;42.64
25664;BME280;13522;50.018;20.014;2023-05-09T14:27:42;99343.99;;;16.84;41.98
25664;BME280;13522;50.018;20.014;2023-05-09T14:30:54;99341.77;;;17.20;42.34
25664;BME280;13522;50.018;20.014;2023-05-09T14:34:06;99348.42;;;17.40;41.77
25664;BME280;13522;50.018;20.014;2023-05-09T14:37:18;99350.19;;;17.09;42.02
25664;BME280;13522;50.018;20.014;2023-05-09T14:40:33;99347.70;;;16.75;43.45
25664;BME280;13522;50.018;20.014;2023-05-09T14:43:45;99352.22;;;16.67;43.32
25664;BME280;13522;50.018;20.014;2023-05-09T14:46:58;99355.37;;;16.38;42.34
25664;BME280;13522;50.018;20.014;2023-05-09T14:50:11;99352.33;;;16.33;43.36
25664;BME280;13522;50.018;20.014;2023-05-09T14:53:23;99347.20;;;16.56;45.02
25664;BME280;13522;50.018;20.014;2023-05-09T14:56:36;99346.65;;;16.36;44.64
25664;BME280;13522;50.018;20.014;2023-05-09T14:59:49;99338.75;;;16.34;45.97
25664;BME280;13522;50.018;20.014;2023-05-09T15:03:03;99334.28;;;16.51;45.83
25664;BME280;13522;50.018;20.014;2023-05-09T15:06:15;99339.80;;;16.82;47.12
25664;BME280;13522;50.018;20.014;2023-05-09T15:09:28;99337.44;;;17.03;45.50
25664;BME280;13522;50.018;20.014;2023-05-09T15:12:41;99327.76;;;16.70;44.44
25664;BME280;13522;50.018;20.014;2023-05-09T15:15:54;99325.89;;;16.70;46.24
25664;BME280;13522;50.018;20.014;2023-05-09T15:19:06;99320.03;;;16.67;44.14
25664;BME280;13522;50.018;20.014;2023-05-09T15:22:19;99310.33;;;16.74;44.62
25664;BME280;13522;50.018;20.014;2023-05-09T15:25:32;99314.34;;;16.54;45.50
25664;BME280;13522;50.018;20.014;2023-05-09T15:28:45;99311.59;;;16.13;44.23
25664;BME280;13522;50.018;20.014;2023-05-09T15:31:57;99307.73;;;16.08;44.56
25664;BME280;13522;50.018;20.014;2023-05-09T15:35:10;99307.91;;;16.22;45.14
25664;BME280;13522;50.018;20.014;2023-05-09T15:38:23;99304.90;;;16.17;44.38
25664;BME280;13522;50.018;20.014;2023-05-09T15:41:35;99304.71;;;16.11;44.89
25664;BME280;13522;50.018;20.014;2023-05-09T15:44:48;99292.78;;;15.89;41.83
25664;BME280;13522;50.018;20.014;2023-05-09T15:48:00;99292.95;;;15.88;42.63
25664;BME280;13522;50.018;20.014;2023-05-09T15:51:13;99272.68;;;15.85;41.55
25664;BME280;13522;50.018;20.014;2023-05-09T15:54:25;99278.73;;;15.95;42.74
25664;BME280;13522;50.018;20.014;2023-05-09T15:57:38;99282.06;;;15.89;44.16
25664;BME280;13522;50.018;20.014;2023-05-09T16:00:52;99268.66;;;15.81;45.16
25664;BME280;13522;50.018;20.014;2023-05-09T16:04:04;99269.94;;;15.61;45.58
25664;BME280;13522;50.018;20.014;2023-05-09T16:07:17;99272.81;;;15.68;45.71
25664;BME280;13522;50.018;20.014;2023-05-09T16:10:29;99264.63;;;15.77;45.58
25664;BME280;13522;50.018;20.014;2023-05-09T16:13:42;99263.95;;;15.75;46.21
25664;BME280;13522;50.018;20.014;2023-05-09T16:16:55;99262.09;;;15.68;46.52
25664;BME280;13522;50.018;20.014;2023-05-09T16:20:12;99261.91;;;15.61;45.83
25664;BME280;13522;50.018;20.014;2023-05-09T16:23:25;99261.54;;;15.48;45.84
25664;BME280;13522;50.018;20.014;2023-05-09T16:26:37;99272.18;;;15.40;46.44
25664;BME280;13522;50.018;20.014;2023-05-09T16:29:49;99269.80;;;15.29;45.88
25664;BME280;13522;50.018;20.014;2023-05-09T16:33:01;99266.11;;;15.30;47.69
25664;BME280;13522;50.018;20.014;2023-05-09T16:36:14;99263.73;;;15.19;47.34
25664;BME280;13522;50.018;20.014;2023-05-09T16:39:26;99264.89;;;15.16;48.09
25664;BME280;13522;50.018;20.014;2023-05-09T16:42:38;99258.69;;;15.16;48.83
25664;BME280;13522;50.018;20.014;2023-05-09T16:45:51;99243.14;;;15.11;48.57
25664;BME280;13522;50.018;20.014;2023-05-09T16:49:03;99250.63;;;15.08;49.27
25664;BME280;13522;50.018;20.014;2023-05-09T16:52:17;99250.28;;;15.03;48.17
25664;BME280;13522;50.018;20.014;2023-05-09T16:55:29;99250.06;;;14.96;47.92
25664;BME280;13522;50.018;20.014;2023-05-09T16:58:41;99244.67;;;14.88;47.16
25664;BME280;13522;50.018;20.014;2023-05-09T17:01:54;99242.63;;;14.82;47.31
25664;BME280;13522;50.018;20.014;2023-05-09T17:05:08;99246.78;;;14.76;48.10
25664;BME280;13522;50.018;20.014;2023-05-09T17:08:20;99242.06;;;14.70;48.15
25664;BME280;13522;50.018;20.014;2023-05-09T17:11:33;99240.70;;;14.66;48.85
25664;BME280;13522;50.018;20.014;2023-05-09T17:14:45;99236.66;;;14.62;49.88
25664;BME280;13522;50.018;20.014;2023-05-09T17:17:58;99237.97;;;14.58;49.35
25664;BME280;13522;50.018;20.014;2023-05-09T17:21:12;99231.42;;;14.53;49.60
25664;BME280;13522;50.018;20.014;2023-05-09T17:24:25;99234.27;;;14.51;50.00
25664;BME280;13522;50.018;20.014;2023-05-09T17:27:38;99226.70;;;14.47;50.18
25664;BME280;13522;50.018;20.014;2023-05-09T17:30:50;99237.56;;;14.45;49.26
25664;BME280;13522;50.018;20.014;2023-05-09T17:34:04;99241.15;;;14.36;49.97